Rib Lake, WI (54470)

4:05 AM CDT on September 05, 2015 (GMT -0500)
APRSWXNET | | Change Station
CLOSE
Current Station
Personal Weather Station
Location: Ogema, WI
Elevation: 1469 ft
Nearby Weather Stations

Elev 1469 ft 45.40 °N, 90.20 °W | Updated 19 minutes ago

Overcast
Overcast
65 °F
Feels Like 65 °F
N
0
Wind Variable Wind from SSE
Gusts 1.0 mph

Today
High -- | Low -- °F
--% Chance of Precip.
Yesterday
High -- | Low -- °F
Precip. -- in
6:26 AM 7:31 PM
Waning Gibbous, 50% visible
Pressure 30.07 in
Visibility 4.0 miles
Clouds Mostly Cloudy 500 ft
Overcast 3400 ft
Dew Point 64 °F
Humidity 95%
Rainfall in
Snow Depth Not available.
UV 0 out of 12
Pollen 9.80 out of 12
Air Quality Not available.
Flu Activity Not available.
METAR KMDZ 050855Z AUTO 13004KT 4SM BR BKN005 OVC034 19/19 A3007 RMK AO2 T01850185
Pressure 30.07 in
Visibility 4.0 miles
Clouds Mostly Cloudy 500 ft
Overcast 3400 ft
Dew Point 64 °F
Humidity 95%
Rainfall in
Snow Depth Not available.
UV 0 out of 12
Pollen 9.80 out of 12
Air Quality Not available.
Flu Activity Not available.
METAR KMDZ 050855Z AUTO 13004KT 4SM BR BKN005 OVC034 19/19 A3007 RMK AO2 T01850185

10-Day Weather Forecast

×

Almanac

Astronomy

Sep. 05, 2015 Rise Set
Actual Time
Civil Twilight
Nautical Twilight
Astronomical Twilight
Moon
Length of Visible Light
Length of Day
Tomorrow will be .
, % of the Moon is Illuminated

Today's Extremes

State Highs State Lows

Community

WunderPhotos

Upload Photos

1,852,440 photos uploaded!

WunderBlogs® & News

Nearby

Air Quality

  Air Quality AQ Index Pollutant
Not available.

Snow Depth

Station Depth Elevation

Earthquake Activity

City Distance Mag. Time & Date
Minimum magnitude displayed is 2.5.

Coastal Water Temperatures

Place Temperature

Stations

Nearby Weather Stations

Station Location Temp. Windchill Dew Point Humidity Wind Precip. Elev Updated Type